createdAt,value
2019-05-15T00:00:14.323Z,7
2019-05-15T00:01:14.397Z,6.93
2019-05-15T00:02:18.023Z,7.05
2019-05-15T00:03:14.096Z,7.13
2019-05-15T00:04:14.630Z,7.11
2019-05-15T00:05:14.462Z,7.15
2019-05-15T00:06:14.139Z,7.19
2019-05-15T00:07:14.178Z,7.13
2019-05-15T00:08:14.887Z,7.15
2019-05-15T00:09:14.155Z,7.1
2019-05-15T00:10:14.328Z,7.1
2019-05-15T00:11:14.130Z,7.23
2019-05-15T00:12:14.224Z,7.22
2019-05-15T00:13:14.714Z,7.14
2019-05-15T00:14:14.102Z,7.11
2019-05-15T00:15:14.810Z,7.1
2019-05-15T00:16:14.123Z,7.14
2019-05-15T00:17:14.127Z,7.08
2019-05-15T00:18:14.191Z,7.07
2019-05-15T00:19:14.114Z,7.15
2019-05-15T00:20:15.290Z,7.1
2019-05-15T00:21:14.681Z,7.14
2019-05-15T00:22:14.155Z,7
2019-05-15T00:23:14.123Z,6.85
2019-05-15T00:24:20.496Z,6.92
2019-05-15T00:25:14.686Z,6.86
2019-05-15T00:26:14.820Z,6.83
2019-05-15T00:27:14.152Z,6.89
2019-05-15T00:28:14.956Z,6.87
2019-05-15T00:29:22.478Z,6.93
2019-05-15T00:30:14.159Z,6.96
2019-05-15T00:31:14.481Z,6.85
2019-05-15T00:32:14.733Z,6.8
2019-05-15T00:34:20.950Z,6.9
2019-05-15T00:34:34.427Z,6.96
2019-05-15T00:41:15.260Z,6.82
2019-05-15T00:42:15.243Z,6.92
2019-05-15T00:43:15.152Z,6.92
2019-05-15T00:44:15.165Z,6.8
2019-05-15T00:49:34.256Z,6.68
2019-05-15T00:50:48.496Z,6.8
2019-05-15T00:51:48.651Z,6.86
2019-05-15T00:52:48.388Z,6.86
2019-05-15T00:53:48.277Z,6.89
2019-05-15T00:54:48.378Z,6.83
2019-05-15T00:55:48.553Z,6.85
2019-05-15T00:56:48.419Z,6.8
2019-05-15T00:57:48.479Z,6.77
2019-05-15T00:58:48.165Z,6.85
2019-05-15T00:59:48.353Z,6.83
2019-05-15T01:00:48.625Z,6.8
2019-05-15T01:01:48.727Z,6.85
2019-05-15T01:02:48.645Z,6.93
2019-05-15T01:03:48.922Z,6.83
2019-05-15T01:04:47.956Z,6.86
2019-05-15T01:05:48.009Z,6.86
2019-05-15T01:06:48.733Z,6.77
2019-05-15T01:07:47.968Z,6.87
2019-05-15T01:08:48.235Z,6.83
2019-05-15T01:09:48.662Z,6.78
2019-05-15T01:10:48.811Z,6.75
2019-05-15T01:11:48.750Z,6.77
2019-05-15T01:12:48.617Z,6.86
2019-05-15T01:13:48.128Z,6.8
2019-05-15T01:14:48.776Z,6.8
2019-05-15T01:15:48.849Z,6.8
2019-05-15T01:16:48.933Z,6.77
2019-05-15T01:17:49.039Z,6.78
2019-05-15T01:18:48.952Z,6.78
2019-05-15T01:19:48.181Z,6.75
2019-05-15T01:20:49.070Z,6.64
2019-05-15T01:21:48.068Z,6.7
2019-05-15T01:22:48.471Z,6.77
2019-05-15T01:23:48.351Z,6.71
2019-05-15T01:24:48.486Z,6.7
2019-05-15T01:25:48.152Z,6.64
2019-05-15T01:26:49.010Z,6.7
2019-05-15T01:27:48.829Z,6.75
2019-05-15T01:28:49.340Z,6.71
2019-05-15T01:29:52.030Z,6.74
2019-05-15T01:30:48.579Z,6.71
2019-05-15T01:31:48.662Z,6.78
2019-05-15T01:32:48.470Z,6.68
2019-05-15T01:33:48.071Z,6.68
2019-05-15T01:34:48.846Z,6.64
2019-05-15T01:35:48.713Z,6.54
2019-05-15T01:36:48.844Z,6.72
2019-05-15T01:37:48.265Z,6.54
2019-05-15T01:38:48.024Z,6.68
2019-05-15T01:39:48.516Z,6.75
2019-05-15T01:40:48.453Z,6.7
2019-05-15T01:41:49.306Z,6.67
2019-05-15T01:42:46.840Z,6.54
2019-05-15T01:43:48.887Z,6.54
2019-05-15T01:44:48.379Z,6.57
2019-05-15T01:45:48.265Z,6.52
2019-05-15T01:46:48.245Z,6.59
2019-05-15T01:47:47.978Z,6.65
2019-05-15T01:48:49.112Z,6.59
2019-05-15T01:49:48.851Z,6.53
2019-05-15T01:50:49.013Z,6.59
2019-05-15T01:51:47.931Z,6.7
2019-05-15T01:52:47.884Z,6.6
2019-05-15T01:53:48.015Z,6.6
2019-05-15T01:54:48.818Z,6.65
2019-05-15T01:55:48.284Z,6.74
2019-05-15T01:56:49.211Z,6.43
2019-05-15T01:57:48.673Z,6.17
2019-05-15T01:58:48.666Z,6.36
2019-05-15T02:00:03.019Z,6.35
2019-05-15T02:00:48.311Z,6.31
2019-05-15T02:01:48.457Z,6.38
2019-05-15T02:02:48.064Z,6.34
2019-05-15T02:03:49.088Z,6.29
2019-05-15T02:04:48.582Z,6.35
2019-05-15T02:05:48.032Z,6.31
2019-05-15T02:06:48.208Z,6.32
2019-05-15T02:07:47.879Z,6.36
2019-05-15T02:15:14.102Z,6.46
2019-05-15T02:15:28.487Z,6.35
2019-05-15T02:16:28.604Z,6.36
2019-05-15T02:17:28.254Z,6.35
2019-05-15T02:18:28.501Z,6.25
2019-05-15T02:19:28.708Z,6.34
2019-05-15T02:20:29.088Z,6.34
2019-05-15T02:21:28.791Z,6.29
2019-05-15T02:22:28.285Z,6.38
2019-05-15T02:23:28.016Z,6.31
2019-05-15T02:24:28.340Z,6.25
2019-05-15T02:25:27.999Z,6.38
2019-05-15T02:26:28.126Z,6.32
2019-05-15T02:27:29.353Z,6.29
2019-05-15T02:28:28.868Z,6.25
2019-05-15T02:29:31.404Z,6.02
2019-05-15T02:30:40.053Z,6.05
2019-05-15T02:31:30.085Z,6.07
2019-05-15T02:32:30.130Z,6.15
2019-05-15T02:33:30.014Z,6.07
2019-05-15T02:34:29.944Z,5.98
2019-05-15T02:35:29.496Z,5.94
2019-05-15T02:36:29.255Z,5.87
2019-05-15T02:37:29.321Z,5.97
2019-05-15T02:38:29.498Z,6.16
2019-05-15T02:39:28.845Z,6.07
2019-05-15T02:40:29.391Z,6.1
2019-05-15T02:45:01.292Z,6.13
2019-05-15T02:46:00.352Z,6.05
2019-05-15T02:47:01.356Z,6.02
2019-05-15T02:47:59.640Z,6.05
2019-05-15T02:48:59.158Z,6.1
2019-05-15T02:49:59.261Z,6.12
2019-05-15T02:51:01.404Z,6.06
2019-05-15T02:52:00.133Z,6.13
2019-05-15T02:53:00.448Z,6.15
2019-05-15T02:54:01.198Z,6.1
2019-05-15T02:54:59.887Z,6.09
2019-05-15T02:56:00.054Z,6.09
2019-05-15T02:57:01.644Z,6.17
2019-05-15T02:58:01.563Z,5.94
2019-05-15T02:58:59.863Z,6.13
2019-05-15T03:00:01.983Z,5.77
2019-05-15T03:01:02.118Z,5.91
2019-05-15T03:01:59.374Z,5.9
2019-05-15T03:03:00.108Z,6.05
2019-05-15T03:03:59.563Z,5.88
2019-05-15T03:04:59.465Z,6.05
2019-05-15T03:06:00.043Z,5.98
2019-05-15T03:07:00.239Z,6.02
2019-05-15T03:08:02.241Z,5.95
2019-05-15T03:08:59.553Z,5.9
2019-05-15T03:09:59.881Z,6.01
2019-05-15T03:11:01.792Z,5.94
2019-05-15T03:12:01.201Z,5.83
2019-05-15T03:13:00.099Z,5.98
2019-05-15T03:14:02.257Z,6.02
2019-05-15T03:14:59.786Z,6.05
2019-05-15T03:15:59.775Z,5.95
2019-05-15T03:17:02.074Z,5.95
2019-05-15T03:18:00.305Z,5.76
2019-05-15T03:19:02.573Z,5.79
2019-05-15T03:20:02.014Z,5.8
2019-05-15T03:21:00.253Z,5.81
2019-05-15T03:21:59.823Z,5.76
2019-05-15T03:22:59.680Z,5.73
2019-05-15T03:24:01.895Z,5.69
2019-05-15T03:25:01.938Z,5.65
2019-05-15T03:26:00.471Z,5.7
2019-05-15T03:26:59.216Z,5.73
2019-05-15T03:28:02.264Z,5.61
2019-05-15T03:29:01.568Z,5.77
2019-05-15T03:30:01.925Z,5.43
2019-05-15T03:32:08.986Z,5.61
2019-05-15T03:33:27.005Z,5.72
2019-05-15T03:34:12.105Z,5.62
2019-05-15T03:35:13.087Z,5.49
2019-05-15T03:36:05.772Z,5.51
2019-05-15T03:37:03.148Z,5.59
2019-05-15T03:37:59.806Z,5.58
2019-05-15T03:38:58.638Z,5.73
2019-05-15T03:39:59.444Z,5.74
2019-05-15T03:40:59.482Z,5.87
2019-05-15T03:41:58.840Z,5.79
2019-05-15T03:42:59.226Z,5.8
2019-05-15T03:44:04.910Z,5.87
2019-05-15T03:44:59.542Z,5.83
2019-05-15T03:46:01.131Z,5.79
2019-05-15T03:46:59.566Z,5.9
2019-05-15T03:47:59.475Z,5.76
2019-05-15T03:49:00.242Z,5.83
2019-05-15T03:50:00.050Z,5.8
2019-05-15T03:50:59.636Z,5.76
2019-05-15T03:51:58.899Z,5.79
2019-05-15T03:52:58.785Z,5.77
2019-05-15T03:54:00.275Z,5.83
2019-05-15T03:54:58.783Z,5.84
2019-05-15T03:55:58.865Z,5.88
2019-05-15T03:56:58.439Z,5.8
2019-05-15T03:57:59.113Z,5.79
2019-05-15T03:58:59.667Z,5.83
2019-05-15T03:59:59.708Z,5.8
2019-05-15T04:01:00.071Z,5.74
2019-05-15T04:01:59.885Z,5.59
2019-05-15T04:02:59.000Z,5.61
2019-05-15T04:03:59.786Z,5.61
2019-05-15T04:05:04.418Z,5.65
2019-05-15T04:06:00.418Z,5.41
2019-05-15T04:06:59.470Z,5.49
2019-05-15T04:07:59.717Z,5.4
2019-05-15T04:08:58.625Z,5.2
2019-05-15T04:09:58.691Z,5.4
2019-05-15T04:10:59.601Z,5.49
2019-05-15T04:14:05.666Z,5.51
2019-05-15T04:14:21.906Z,5.56
2019-05-15T04:15:21.423Z,5.46
2019-05-15T04:16:21.878Z,5.49
2019-05-15T04:17:22.383Z,5.65
2019-05-15T04:18:22.362Z,5.7
2019-05-15T04:19:22.083Z,5.44
2019-05-15T04:20:20.009Z,5.58
2019-05-15T04:21:19.930Z,5.58
2019-05-15T04:22:22.319Z,5.58
2019-05-15T04:23:21.700Z,5.49
2019-05-15T04:24:21.602Z,5.58
2019-05-15T04:25:22.123Z,5.52
2019-05-15T04:26:22.031Z,5.62
2019-05-15T04:27:22.360Z,5.67
2019-05-15T04:28:21.812Z,5.51
2019-05-15T04:29:28.889Z,5.51
2019-05-15T04:30:21.521Z,5.59
2019-05-15T04:31:22.183Z,5.69
2019-05-15T04:32:22.564Z,5.64
2019-05-15T04:33:21.802Z,5.67
2019-05-15T04:34:39.590Z,5.55
2019-05-15T04:35:39.895Z,5.62
2019-05-15T04:36:39.082Z,5.64
2019-05-15T04:37:40.483Z,5.62
2019-05-15T04:38:39.204Z,5.73
2019-05-15T04:39:39.935Z,5.64
2019-05-15T04:40:39.594Z,5.7
2019-05-15T04:41:39.218Z,5.76
2019-05-15T04:42:39.682Z,5.8
2019-05-15T04:43:52.173Z,5.77
2019-05-15T04:44:39.451Z,5.77
2019-05-15T04:45:41.902Z,5.79
2019-05-15T04:46:39.146Z,5.77
2019-05-15T04:47:39.559Z,5.81
2019-05-15T04:48:39.765Z,5.77
2019-05-15T04:49:39.327Z,5.77
2019-05-15T04:50:39.835Z,5.83
2019-05-15T04:51:38.994Z,5.87
2019-05-15T04:52:39.322Z,5.87
2019-05-15T04:53:41.956Z,5.9
2019-05-15T04:54:40.132Z,5.87
2019-05-15T04:55:40.199Z,5.98
2019-05-15T04:56:39.906Z,5.97
2019-05-15T04:57:43.048Z,5.99
2019-05-15T04:58:39.390Z,5.98
2019-05-15T04:59:38.936Z,5.97
2019-05-15T05:00:39.963Z,6.02
2019-05-15T05:01:40.111Z,6.01
2019-05-15T05:02:39.809Z,6.2
2019-05-15T05:03:42.228Z,6.22
2019-05-15T05:04:38.682Z,6.12
2019-05-15T05:05:38.709Z,6.28
2019-05-15T05:06:38.661Z,6.25
2019-05-15T05:07:38.928Z,6.31
2019-05-15T05:08:39.669Z,6.34
2019-05-15T05:09:38.937Z,6.47
2019-05-15T05:10:39.520Z,6.46
2019-05-15T05:11:38.268Z,6.53
2019-05-15T05:12:41.435Z,6.52
2019-05-15T05:13:39.133Z,6.53
2019-05-15T05:14:39.061Z,6.6
2019-05-15T05:15:38.849Z,6.7
2019-05-15T05:16:39.196Z,6.65
2019-05-15T05:17:39.054Z,6.71
2019-05-15T05:18:40.884Z,6.8
2019-05-15T05:19:40.089Z,6.87
2019-05-15T05:20:38.200Z,6.8
2019-05-15T05:25:08.018Z,6.92
2019-05-15T05:26:10.449Z,6.97
2019-05-15T05:27:08.706Z,6.89
2019-05-15T05:28:08.689Z,7.13
2019-05-15T05:29:08.457Z,7.18
2019-05-15T05:30:08.370Z,7.28
2019-05-15T05:34:39.068Z,7.36
2019-05-15T05:35:38.687Z,7.66
2019-05-15T05:36:38.579Z,7.62
2019-05-15T05:37:38.844Z,7.51
2019-05-15T05:38:38.645Z,7.67
2019-05-15T05:39:39.267Z,7.69
2019-05-15T05:40:38.424Z,7.84
2019-05-15T05:41:39.123Z,7.56
2019-05-15T05:42:38.811Z,7.84
2019-05-15T05:43:38.274Z,7.87
2019-05-15T05:44:38.351Z,7.9
2019-05-15T05:45:38.384Z,8.17
2019-05-15T05:46:39.607Z,7.96
2019-05-15T05:47:38.137Z,8.2
2019-05-15T05:48:38.293Z,8.23
2019-05-15T05:49:38.096Z,8.32
2019-05-15T05:50:38.482Z,8.27
2019-05-15T05:51:38.655Z,8.23
2019-05-15T05:52:38.945Z,8.34
2019-05-15T05:53:38.273Z,8.28
2019-05-15T05:54:38.230Z,8.38
2019-05-15T05:55:38.423Z,8.32
2019-05-15T05:56:37.772Z,8.5
2019-05-15T05:57:38.197Z,8.38
2019-05-15T05:58:38.874Z,8.6
2019-05-15T05:59:38.662Z,8.35
2019-05-15T06:00:39.291Z,8.6
2019-05-15T06:01:48.357Z,8.64
2019-05-15T06:04:07.837Z,8.95
2019-05-15T06:05:07.879Z,9.05
2019-05-15T06:06:09.413Z,9.02
2019-05-15T06:07:21.127Z,9.29
2019-05-15T06:08:07.943Z,9.29
2019-05-15T06:09:09.010Z,9.27
2019-05-15T06:10:08.797Z,9.37
2019-05-15T06:11:09.377Z,9.49
2019-05-15T06:12:07.783Z,9.45
2019-05-15T06:13:08.656Z,9.45
2019-05-15T06:14:08.741Z,9.73
2019-05-15T06:15:08.783Z,9.88
2019-05-15T06:16:08.410Z,9.95
2019-05-15T06:17:08.326Z,10.23
2019-05-15T06:19:11.622Z,10.39
2019-05-15T06:19:24.193Z,10.42
2019-05-15T06:20:24.165Z,10.69
2019-05-15T06:21:24.234Z,11.13
2019-05-15T06:22:24.286Z,11.49
2019-05-15T06:23:36.445Z,11.41
2019-05-15T06:24:24.306Z,11.97
2019-05-15T06:25:25.175Z,12.08
2019-05-15T06:26:25.097Z,12.33
2019-05-15T06:27:25.272Z,12.35
2019-05-15T06:28:25.416Z,12.15
2019-05-15T06:30:33.472Z,11.78
2019-05-15T06:31:24.330Z,11.43
2019-05-15T06:32:24.851Z,11.71
2019-05-15T06:33:24.446Z,11.73
2019-05-15T06:34:24.274Z,12.21
2019-05-15T06:35:24.688Z,12.65
2019-05-15T06:36:24.215Z,12.43
2019-05-15T06:37:24.964Z,12.9
2019-05-15T06:38:24.933Z,12.99
2019-05-15T06:39:24.204Z,13.24
2019-05-15T06:40:24.242Z,13.45
2019-05-15T06:41:24.230Z,12.75
2019-05-15T06:42:24.322Z,12.95
2019-05-15T06:43:24.884Z,13.27
2019-05-15T06:44:24.294Z,12.76
2019-05-15T06:45:24.958Z,13.05
2019-05-15T06:46:24.323Z,13.42
2019-05-15T06:47:24.225Z,13.3
2019-05-15T06:48:24.340Z,12.93
2019-05-15T06:49:24.228Z,12.86
2019-05-15T06:50:24.487Z,12.47
2019-05-15T06:51:24.261Z,12.3
2019-05-15T06:52:24.342Z,12.33
2019-05-15T06:53:24.964Z,11.96
2019-05-15T06:54:24.321Z,11.74
2019-05-15T06:55:24.485Z,11.7
2019-05-15T06:56:24.306Z,11.6
2019-05-15T06:57:24.257Z,11.44
2019-05-15T06:58:28.900Z,11.44
2019-05-15T07:00:24.492Z,11.18
2019-05-15T07:01:24.344Z,11.08
2019-05-15T07:02:24.327Z,11
2019-05-15T07:03:32.173Z,10.68
2019-05-15T07:04:24.483Z,10.69
2019-05-15T07:05:24.302Z,10.84
2019-05-15T07:06:24.247Z,10.71
2019-05-15T07:07:24.351Z,10.75
2019-05-15T07:08:24.280Z,10.58
2019-05-15T07:09:24.266Z,10.8
2019-05-15T07:10:24.358Z,10.79
2019-05-15T07:11:24.527Z,10.49
2019-05-15T07:12:24.268Z,10.53
2019-05-15T07:13:24.276Z,10.68
2019-05-15T07:14:24.318Z,10.79
2019-05-15T07:15:24.322Z,10.72
2019-05-15T07:16:24.315Z,10.89
2019-05-15T07:17:24.258Z,10.98
2019-05-15T07:18:25.298Z,10.8
2019-05-15T07:19:24.521Z,11.08
2019-05-15T07:20:24.277Z,10.67
2019-05-15T07:21:27.968Z,10.83
2019-05-15T07:22:24.288Z,11.02
2019-05-15T07:23:27.172Z,10.94
2019-05-15T07:24:24.311Z,10.87
2019-05-15T07:25:24.319Z,11.07
2019-05-15T07:26:24.379Z,10.86
2019-05-15T07:27:24.323Z,11.04
2019-05-15T07:28:24.340Z,10.95
2019-05-15T07:29:24.436Z,11.08
2019-05-15T07:30:24.311Z,10.92
2019-05-15T07:31:24.286Z,11.1
2019-05-15T07:32:24.539Z,10.95
2019-05-15T07:33:48.805Z,10.98
2019-05-15T07:34:24.330Z,11
2019-05-15T07:35:28.750Z,11.27
2019-05-15T07:36:24.769Z,11.27
2019-05-15T07:37:24.425Z,11.45
2019-05-15T07:38:24.336Z,11.07
2019-05-15T07:39:24.442Z,11.07
2019-05-15T07:40:24.737Z,11.23
2019-05-15T07:41:24.313Z,11.3
2019-05-15T07:42:24.415Z,11.25
2019-05-15T07:43:24.406Z,11.26
2019-05-15T07:44:24.391Z,11.43
2019-05-15T07:45:28.223Z,11.59
2019-05-15T07:46:25.375Z,11.86
2019-05-15T07:47:24.579Z,11.99
2019-05-15T07:48:24.397Z,11.73
2019-05-15T07:49:24.414Z,11.59
2019-05-15T07:50:25.068Z,11.51
2019-05-15T07:51:24.318Z,11.4
2019-05-15T07:52:24.852Z,11.44
2019-05-15T07:54:44.694Z,11.73
2019-05-15T07:55:44.763Z,11.58
2019-05-15T07:56:44.707Z,11.56
2019-05-15T07:57:45.037Z,11.48
2019-05-15T07:58:44.799Z,11.45
2019-05-15T07:59:48.064Z,11.67
2019-05-15T08:00:44.905Z,11.58
2019-05-15T08:01:44.743Z,11.65
2019-05-15T08:02:44.671Z,11.62
2019-05-15T08:04:29.042Z,11.49
2019-05-15T08:04:44.708Z,11.37
2019-05-15T08:06:05.375Z,11.37
2019-05-15T08:06:44.717Z,11.4
2019-05-15T08:07:44.705Z,11.44
2019-05-15T08:08:44.856Z,11.67
2019-05-15T08:09:45.146Z,11.81
2019-05-15T08:10:44.994Z,12.03
2019-05-15T08:11:44.708Z,12.05
2019-05-15T08:12:44.717Z,12.12
2019-05-15T08:13:44.722Z,11.85
2019-05-15T08:14:47.401Z,11.51
2019-05-15T08:15:44.720Z,11.89
2019-05-15T08:16:45.047Z,11.7
2019-05-15T08:18:12.772Z,11.93
2019-05-15T08:18:44.916Z,11.95
2019-05-15T08:19:44.784Z,11.88
2019-05-15T08:20:44.853Z,11.96
2019-05-15T08:22:58.180Z,12.28
2019-05-15T08:23:58.994Z,12.36
2019-05-15T08:24:59.071Z,12.25
2019-05-15T08:25:58.304Z,12.53
2019-05-15T08:26:58.075Z,12.3
2019-05-15T08:27:58.743Z,12.12
2019-05-15T08:28:57.895Z,12.43
2019-05-15T08:29:58.092Z,12.28
2019-05-15T08:30:58.265Z,12.07
2019-05-15T08:31:58.920Z,12.07
2019-05-15T08:32:58.828Z,12.25
2019-05-15T08:34:11.847Z,12.3
2019-05-15T08:34:58.634Z,12.43
2019-05-15T08:35:58.765Z,12.73
2019-05-15T08:36:58.949Z,12.57
2019-05-15T08:37:58.073Z,12.58
2019-05-15T08:38:59.143Z,12.66
2019-05-15T08:39:59.540Z,12.62
2019-05-15T08:40:59.176Z,12.45
2019-05-15T08:41:58.412Z,12.45
2019-05-15T08:43:04.832Z,12.17
2019-05-15T08:43:57.925Z,12.14
2019-05-15T08:44:58.314Z,12.37
2019-05-15T08:45:58.613Z,12.61
2019-05-15T08:46:58.770Z,12.5
2019-05-15T08:47:58.534Z,12.54
2019-05-15T08:48:58.274Z,12.57
2019-05-15T08:49:57.916Z,12.81
2019-05-15T08:50:57.846Z,12.72
2019-05-15T08:51:58.366Z,12.53
2019-05-15T08:52:57.892Z,12.5
2019-05-15T08:53:57.940Z,12.37
2019-05-15T08:54:58.996Z,12.28
2019-05-15T08:55:58.725Z,12.08
2019-05-15T08:56:59.139Z,12.3
2019-05-15T08:58:13.833Z,12.25
2019-05-15T08:58:58.009Z,12.21
2019-05-15T08:59:58.281Z,12.33
2019-05-15T09:00:58.800Z,12.15
2019-05-15T09:01:58.227Z,12.35
2019-05-15T09:02:58.157Z,12.33
2019-05-15T09:03:58.133Z,12.33
2019-05-15T09:04:58.006Z,12.72
2019-05-15T09:05:58.933Z,12.47
2019-05-15T09:07:00.995Z,12.57
2019-05-15T09:07:57.998Z,12.7
2019-05-15T09:08:58.469Z,12.65
2019-05-15T09:09:58.024Z,12.72
2019-05-15T09:10:58.689Z,12.5
2019-05-15T09:11:58.459Z,12.53
2019-05-15T09:13:01.339Z,12.72
2019-05-15T09:14:02.079Z,12.78
2019-05-15T09:14:58.179Z,12.76
2019-05-15T09:15:58.839Z,12.73
2019-05-15T09:16:58.192Z,12.7
2019-05-15T09:18:20.036Z,12.73
2019-05-15T09:18:59.130Z,12.51
2019-05-15T09:20:01.220Z,12.58
2019-05-15T09:20:59.281Z,12.61
2019-05-15T09:21:58.452Z,12.7
2019-05-15T09:22:58.209Z,12.48
2019-05-15T09:23:58.857Z,12.36
2019-05-15T09:24:58.924Z,12.44
2019-05-15T09:25:57.831Z,12.7
2019-05-15T09:26:59.413Z,12.86
2019-05-15T09:27:57.902Z,13.02
2019-05-15T09:28:58.438Z,12.78
2019-05-15T09:30:08.680Z,12.9
2019-05-15T09:30:59.020Z,12.95
2019-05-15T09:31:58.778Z,12.93
2019-05-15T09:32:58.814Z,12.86
2019-05-15T09:33:58.537Z,12.95
2019-05-15T09:35:02.265Z,12.73
2019-05-15T09:35:58.299Z,12.93
2019-05-15T09:36:59.918Z,13.28
2019-05-15T09:37:58.272Z,13.49
2019-05-15T09:38:58.471Z,13.65
2019-05-15T09:39:58.357Z,13.55
2019-05-15T09:40:58.465Z,13.39
2019-05-15T09:42:00.555Z,13.79
2019-05-15T09:42:57.788Z,14.2
2019-05-15T09:43:57.850Z,14.68
2019-05-15T09:44:58.181Z,14.58
2019-05-15T09:45:58.243Z,14.67
2019-05-15T09:46:58.406Z,14.81
2019-05-15T09:47:58.757Z,15.18
2019-05-15T09:48:59.259Z,15.18
2019-05-15T09:49:58.871Z,15.51
2019-05-15T09:50:58.667Z,15.11
2019-05-15T09:51:58.532Z,15.1
2019-05-15T09:52:58.760Z,15.11
2019-05-15T09:53:59.541Z,15.92
2019-05-15T09:54:59.241Z,15.84
2019-05-15T09:55:59.715Z,15.94
2019-05-15T09:56:58.501Z,16.1
2019-05-15T09:58:01.814Z,15.78
2019-05-15T09:58:58.129Z,15.81
2019-05-15T10:00:03.952Z,15.85
2019-05-15T10:00:58.789Z,16.21
2019-05-15T10:01:58.953Z,16
2019-05-15T10:02:57.416Z,16.43
2019-05-15T10:03:57.418Z,15.9
2019-05-15T10:05:14.034Z,15.99
2019-05-15T10:05:57.365Z,15.96
2019-05-15T10:06:57.403Z,15.98
2019-05-15T10:10:04.724Z,15.05
2019-05-15T10:10:19.178Z,14.96
2019-05-15T10:11:19.556Z,14.59
2019-05-15T10:12:18.304Z,15.19
2019-05-15T10:13:18.397Z,15.12
2019-05-15T10:14:19.432Z,15.07
2019-05-15T10:15:18.543Z,15.33
2019-05-15T10:16:19.735Z,15.51
2019-05-15T10:17:18.348Z,15.29
2019-05-15T10:18:18.962Z,14.85
2019-05-15T10:19:18.504Z,14.23
2019-05-15T10:20:18.389Z,14.62
2019-05-15T10:21:18.554Z,14.78
2019-05-15T10:22:18.644Z,15.23
2019-05-15T10:23:19.446Z,15.26
2019-05-15T10:24:18.180Z,15.41
2019-05-15T10:25:18.944Z,15.51
2019-05-15T10:26:22.036Z,15.65
2019-05-15T10:27:18.002Z,15.88
2019-05-15T10:28:21.622Z,15.94
2019-05-15T10:29:17.257Z,15.83
2019-05-15T10:30:18.837Z,15.91
2019-05-15T10:31:19.443Z,16.17
2019-05-15T10:36:34.056Z,15.85
2019-05-15T10:36:49.310Z,16.57
2019-05-15T10:37:48.702Z,16.16
2019-05-15T10:38:48.781Z,16.36
2019-05-15T10:39:50.666Z,16.36
2019-05-15T10:41:18.728Z,15.88
2019-05-15T10:41:48.213Z,15.87
2019-05-15T10:42:49.411Z,16.26
2019-05-15T10:44:53.956Z,16.41
2019-05-15T10:45:08.320Z,16.43
2019-05-15T10:46:12.980Z,16.55
2019-05-15T10:47:08.806Z,16.39
2019-05-15T10:48:09.323Z,16.74
2019-05-15T10:49:08.571Z,16.87
2019-05-15T10:50:08.021Z,16.37
2019-05-15T10:51:14.416Z,16.29
2019-05-15T10:52:08.657Z,15.51
2019-05-15T10:53:10.756Z,15.33
2019-05-15T10:55:31.564Z,15.73
2019-05-15T10:56:31.720Z,15.63
2019-05-15T10:57:30.773Z,15.72
2019-05-15T10:58:31.322Z,15.41
2019-05-15T10:59:30.324Z,15.55
2019-05-15T11:00:31.306Z,15.41
2019-05-15T11:01:29.472Z,15.14
2019-05-15T11:02:31.672Z,15.3
2019-05-15T11:03:34.836Z,15.36
2019-05-15T11:04:31.479Z,15.3
2019-05-15T11:05:49.086Z,14.93
2019-05-15T11:06:31.473Z,14.97
2019-05-15T11:07:31.151Z,14.81
2019-05-15T11:08:31.741Z,14.67
2019-05-15T11:09:31.349Z,14.26
2019-05-15T11:10:31.685Z,15.1
2019-05-15T11:11:29.558Z,15.11
2019-05-15T11:12:31.943Z,15.23
2019-05-15T11:13:31.520Z,15.02
2019-05-15T11:14:31.347Z,15.33
2019-05-15T11:15:31.648Z,15.1
2019-05-15T11:16:30.951Z,14.86
2019-05-15T11:17:31.745Z,15.8
2019-05-15T11:18:33.169Z,15.76
2019-05-15T11:19:40.485Z,15.62
2019-05-15T11:20:29.629Z,15.63
2019-05-15T11:21:29.549Z,15.6
2019-05-15T11:22:32.381Z,15.92
2019-05-15T11:23:31.950Z,16.29
2019-05-15T11:24:34.589Z,15.63
2019-05-15T11:25:32.681Z,16
2019-05-15T11:26:35.950Z,16.21
2019-05-15T11:27:33.992Z,16.29
2019-05-15T11:28:34.545Z,16.51
2019-05-15T11:29:29.561Z,16.21
2019-05-15T11:30:29.604Z,15.87
2019-05-15T11:31:31.454Z,16.37
2019-05-15T11:32:32.057Z,16.69
2019-05-15T11:33:32.028Z,16.61
2019-05-15T11:34:31.724Z,16.13
2019-05-15T11:35:31.190Z,15.92
2019-05-15T11:36:31.489Z,15.8
2019-05-15T11:37:30.939Z,15.55
2019-05-15T11:38:31.647Z,15.7
2019-05-15T11:39:31.573Z,15.54
2019-05-15T11:40:31.107Z,16.06
2019-05-15T11:41:32.293Z,16.18
2019-05-15T11:42:31.523Z,16.25
2019-05-15T11:43:31.922Z,16.69
2019-05-15T11:44:30.966Z,16.76
2019-05-15T11:45:31.769Z,16.77
2019-05-15T11:46:31.985Z,16.65
2019-05-15T11:47:30.577Z,16.91
2019-05-15T11:48:32.631Z,16.98
2019-05-15T11:49:31.759Z,17.19
2019-05-15T11:50:32.543Z,16.99
2019-05-15T11:51:31.711Z,17.14
2019-05-15T11:52:32.109Z,16.89
2019-05-15T11:53:31.154Z,17.12
2019-05-15T11:54:30.972Z,17.31
2019-05-15T11:55:31.838Z,17.57
2019-05-15T11:56:32.128Z,17.84
2019-05-15T11:57:51.591Z,17.42
2019-05-15T12:00:30.273Z,16.41
2019-05-15T12:01:11.182Z,16.44
2019-05-15T12:02:11.128Z,16.61
2019-05-15T12:03:11.749Z,16.69
2019-05-15T12:04:25.314Z,16.73
2019-05-15T12:05:11.908Z,16.8
2019-05-15T12:06:25.368Z,16.34
2019-05-15T12:07:11.321Z,16.77
2019-05-15T12:08:12.592Z,16.39
2019-05-15T12:09:09.076Z,16.66
2019-05-15T12:10:12.821Z,17.09
2019-05-15T12:11:10.203Z,17.42
2019-05-15T12:12:11.437Z,17.17
2019-05-15T12:13:09.853Z,16.89
2019-05-15T12:14:11.029Z,17.37
2019-05-15T12:15:08.759Z,17.46
2019-05-15T12:16:08.675Z,17.14
2019-05-15T12:17:19.070Z,17.38
2019-05-15T12:18:11.450Z,17.27
2019-05-15T12:21:19.826Z,17.28
2019-05-15T12:21:33.756Z,17.14
2019-05-15T12:22:34.152Z,16.39
2019-05-15T12:23:34.472Z,16.77
2019-05-15T12:26:39.217Z,16.99
2019-05-15T12:26:51.587Z,17.02
2019-05-15T12:27:51.784Z,17.04
2019-05-15T12:29:59.735Z,16.95
2019-05-15T12:30:25.323Z,16.89
2019-05-15T12:31:29.760Z,16.44
2019-05-15T12:32:42.567Z,16.34
2019-05-15T12:34:59.754Z,15.98
2019-05-15T12:35:56.204Z,16.03
2019-05-15T12:38:57.493Z,15.92
2019-05-15T12:59:41.151Z,15.88
2019-05-15T13:00:41.102Z,15.45
2019-05-15T13:01:41.591Z,15.55
2019-05-15T13:02:41.466Z,15.83
2019-05-15T13:03:43.395Z,15.9
2019-05-15T13:04:41.771Z,16.44
2019-05-15T13:05:41.967Z,16.74
2019-05-15T13:07:16.823Z,16.74
2019-05-15T13:07:43.158Z,16.79
2019-05-15T13:08:43.829Z,17.04
2019-05-15T13:09:43.315Z,17.13
2019-05-15T13:10:43.537Z,15.87
2019-05-15T13:11:43.042Z,15.88
2019-05-15T13:13:05.484Z,15.98
2019-05-15T13:13:42.927Z,16.08
2019-05-15T13:14:41.588Z,15.67
2019-05-15T13:15:43.848Z,15.7
2019-05-15T13:16:41.760Z,16.02
2019-05-15T13:17:44.231Z,15.72
2019-05-15T13:18:41.444Z,15.41
2019-05-15T13:19:41.561Z,15.39
2019-05-15T13:20:43.869Z,15.19
2019-05-15T13:21:43.306Z,15.07
2019-05-15T13:22:42.388Z,14.97
2019-05-15T13:23:41.443Z,14.63
2019-05-15T13:24:41.473Z,14.45
2019-05-15T13:25:42.510Z,14.86
2019-05-15T13:26:41.224Z,14.74
2019-05-15T13:27:43.375Z,14.67
2019-05-15T13:28:41.028Z,14.61
2019-05-15T13:29:40.895Z,14.31
2019-05-15T13:30:45.702Z,14.08
2019-05-15T13:31:43.527Z,13.93
2019-05-15T13:32:43.921Z,13.85
2019-05-15T13:33:41.456Z,14.08
2019-05-15T13:34:41.698Z,14.15
2019-05-15T13:35:45.612Z,14.23
2019-05-15T13:36:41.907Z,14.44
2019-05-15T13:37:43.925Z,14.43
2019-05-15T13:38:43.348Z,14.41
2019-05-15T13:39:41.844Z,14.55
2019-05-15T13:40:48.135Z,14.51
2019-05-15T13:41:41.323Z,14.13
2019-05-15T13:42:41.717Z,14.26
2019-05-15T13:43:41.298Z,13.95
2019-05-15T13:44:43.906Z,13.93
2019-05-15T13:45:41.515Z,13.83
2019-05-15T13:46:43.307Z,14.16
2019-05-15T13:47:41.529Z,14.08
2019-05-15T13:48:43.750Z,14
2019-05-15T13:49:41.342Z,14.03
2019-05-15T13:50:43.150Z,14.13
2019-05-15T13:52:08.487Z,14.19
2019-05-15T13:52:42.612Z,14.18
2019-05-15T13:53:41.322Z,14.03
2019-05-15T13:54:43.231Z,14.12
2019-05-15T13:55:48.349Z,14.13
2019-05-15T13:56:43.372Z,13.98
2019-05-15T13:57:43.479Z,14.11
2019-05-15T13:58:41.644Z,13.83
2019-05-15T13:59:41.858Z,13.87
2019-05-15T14:00:44.053Z,13.82
2019-05-15T14:01:42.102Z,13.85
2019-05-15T14:02:41.505Z,13.89
2019-05-15T14:03:41.717Z,13.76
2019-05-15T14:04:44.208Z,13.6
2019-05-15T14:05:45.134Z,13.82
2019-05-15T14:06:43.221Z,13.62
2019-05-15T14:07:58.281Z,13.76
2019-05-15T14:08:43.560Z,13.64
2019-05-15T14:09:48.238Z,13.75
2019-05-15T14:10:43.678Z,13.79
2019-05-15T14:11:41.857Z,13.52
2019-05-15T14:12:41.230Z,13.2
2019-05-15T14:13:41.906Z,13.47
2019-05-15T14:14:43.758Z,13.36
2019-05-15T14:15:43.415Z,13.4
2019-05-15T14:16:43.607Z,13.31
2019-05-15T14:17:42.923Z,13.5